• Join FlightAware (Why Join?)
  • Login
  • US Flag 
12:36AM EDT


 

Airport Tracker/Info


-or-


 

Live Flight TrackerFlight Track Log ✈ FLG4262 ✈ 21-Nov-2013 ✈ KBGM - KDTW

Flight Track Log - Related Links

Times and Time Zones

All times are in EST time to prevent confusion due to time zone crossing. See the FLG4262 flight status page for this flight to view local times or setup timezone preferences in your user account.

Time Position Orientation Groundspeed Altitude Reporting Facility
EST Latitude Longitude Course Direction KTS MPH feet Rate Location/Type
05:48PM 42.1569 -76.0800 295° West 244 281 8,400  Level Cleveland Center
05:49PM 42.1869 -76.1714 294° West 258 297 10,600 1,980 Climbing Cleveland Center
05:50PM 42.2211 -76.2789 293° West 300 345 12,500 2,220 Climbing Cleveland Center
05:51PM 42.2592 -76.4056 292° West 314 361 15,300 2,220 Climbing Cleveland Center
05:52PM 42.2293 -76.6872 289° West  Level Estimated
05:52PM 42.2942 -76.5128 294° West 313 360 17,100  Level Cleveland Center
05:53PM 42.3275 -76.6247 292° West 320 368 18,100 960 Climbing Cleveland Center
05:55PM 42.3628 -76.7406 292° West 331 381 19,200 1,080 Climbing Cleveland Center
05:56PM 42.4008 -76.8628 293° West 348 400 20,400 1,200 Climbing Cleveland Center
05:57PM 42.4383 -76.9853 293° West 352 405 21,700 1,200 Climbing Cleveland Center
05:58PM 42.4842 -77.1350 293° West 358 412 23,000 1,200 Climbing Cleveland Center
05:59PM 42.5219 -77.2611 292° West 362 417 24,200 1,200 Climbing Cleveland Center
06:00PM 42.5592 -77.3825 293° West 355 409 25,600 840 Climbing Cleveland Center
06:01PM 42.5978 -77.5139 292° West 353 406 26,000 180 Climbing Cleveland Center
06:02PM 42.6347 -77.6400 292° West 356 410 26,000  Level Cleveland Center
06:03PM 42.6744 -77.7703 293° West 366 421 26,000  Level Cleveland Center
06:04PM 42.6906 -77.9167 279° West 382 440 26,000  Level Cleveland Center
06:05PM 42.6933 -78.0642 272° West 390 449 26,000  Level Cleveland Center
06:06PM 42.6956 -78.2433 271° West 396 456 26,000  Level Cleveland Center
06:07PM 42.6972 -78.3914 271° West 394 453 26,000  Level Cleveland Center
06:08PM 42.7000 -78.5361 272° West 388 447 26,000  Level Cleveland Center
06:09PM 42.7011 -78.6822 271° West 386 444 26,000  Level Cleveland Center
06:10PM 42.7031 -78.8269 271° West 385 443 26,000  Level Cleveland Center
06:11PM 42.7042 -78.9594 271° West 354 407 26,000  Level Cleveland Center
06:12PM 42.7069 -79.1092 271° West 330 380 26,000  Level Cleveland Center
06:13PM 42.7075 -79.2311 270° West 323 372 26,000  Level Cleveland Center
06:14PM 42.7081 -79.3503 270° West 317 365 26,000  Level Cleveland Center
06:15PM 42.7094 -79.4672 271° West 312 359 26,000  Level Cleveland Center
06:16PM 42.7089 -79.5850 270° West 312 359 26,000  Level Cleveland Center
06:17PM 42.7092 -79.7014 270° West 310 357 26,000  Level Cleveland Center
06:18PM 42.7094 -79.8419 270° West 310 357 26,000  Level Cleveland Center
06:19PM 42.7094 -79.9583 270° West 309 356 26,000  Level Cleveland Center
06:20PM 42.7081 -80.0769 269° West 309 356 26,000  Level Cleveland Center
06:21PM 42.7089 -80.1942 271° West 306 352 26,000  Level Cleveland Center
06:22PM 42.7089 -80.3097 270° West 306 352 26,000  Level Cleveland Center
06:23PM 42.7083 -80.4286 270° West 306 352 26,000  Level Cleveland Center
06:25PM 42.7081 -80.5464 270° West 308 354 26,000 -240 Level Cleveland Center
06:26PM 42.7072 -80.6842 270° West 309 356 25,600 -720 Descending Cleveland Center
06:27PM 42.7067 -80.8086 270° West 323 372 24,600 -780 Descending Cleveland Center
06:28PM 42.7022 -80.9281 267° West 317 365 24,000 -300 Descending Cleveland Center
06:29PM 42.6892 -81.0428 261° West 307 353 24,000  Level Cleveland Center
06:30PM 42.6761 -81.1517 261° West 294 338 24,000  Level Cleveland Center
06:31PM 42.6622 -81.2681 261° West 306 352 24,000 -420 Level Cleveland Center
06:32PM 42.6489 -81.3839 261° West 306 352 23,200 -1,020 Descending Cleveland Center
06:33PM 42.6339 -81.5147 261° West 300 345 22,000 -1,080 Descending Cleveland Center
06:34PM 42.6211 -81.6217 261° West 290 334 21,000 -600 Descending Cleveland Center
06:35PM 42.6089 -81.7264 261° West 282 325 20,800 -600 Descending Cleveland Center
06:36PM 42.5967 -81.8283 261° West 281 323 19,800 -1,020 Descending Cleveland Center
06:37PM 42.5842 -81.9281 260° West 271 312 18,800 -960 Descending Cleveland Center
06:38PM 42.5711 -82.0353 261° West 282 325 17,800 -1,140 Descending Cleveland Center
06:39PM 42.5547 -82.1728 261° West 304 350 16,500 -1,260 Descending Cleveland Center
06:39PM 42.5511 -82.1925 256° West 309 356 16,400 -1,260 Descending Cleveland Center
06:40PM 42.5397 -82.2850 261° West 306 352 15,200 -1,560 Descending Cleveland Center
06:41PM 42.5272 -82.3906 261° West 291 335 13,600 -1,560 Descending Cleveland Center
06:41PM 42.5267 -82.3925 249° West 296 341 13,600 -1,500 Level Cleveland Center
06:42PM 42.5158 -82.4939 262° West 269 310 12,100 -1,500 Descending Cleveland Center
06:42PM 42.5144 -82.4928 149° Southeast 279 321 12,100 -120 Level Cleveland Center
06:43PM 42.4992 -82.5794 257° West 215 247 12,000 -120 Descending Cleveland Center
06:43PM 42.4972 -82.5789 168° South 246 283 12,000 -900 Level Cleveland Center
06:44PM 42.5208 -82.6586 292° West 210 242 11,100 -780 Descending Cleveland Center
06:44PM 42.5189 -82.6522 112° Southeast 216 249 11,200 -360 Climbing Cleveland Center
06:45PM 42.5300 -82.7361 280° West 204 235 10,700 -540 Descending Cleveland Center
06:45PM 42.5289 -82.7378 228° Southwest 215 247 10,700 -1,020 Level Cleveland Center
06:46PM 42.4839 -82.7642 203° Southwest 203 234 9,800 -1,020 Descending Cleveland Center
06:46PM 42.4778 -82.7692 211° Southwest 203 234 9,700 -1,020 Descending Cleveland Center
06:47PM 42.4356 -82.7972 206° Southwest 193 222 8,800 -1,020 Descending Cleveland Center
06:47PM 42.4289 -82.7997 195° South 198 228 8,700 -1,020 Descending Cleveland Center
06:48PM 42.3917 -82.8253 207° Southwest 187 215 7,900 -1,020 Descending Cleveland Center
06:48PM 42.3889 -82.8381 254° West 192 221 7,700 -840 Descending Cleveland Center
06:49PM 42.3839 -82.9006 264° West 182 209 7,000 -720 Descending Cleveland Center
06:49PM 42.3836 -82.9050 265° West 179 206 7,000 -900 Level Cleveland Center
06:50PM 42.3794 -82.9622 264° West 181 208 6,200 -900 Descending Cleveland Center
06:50PM 42.3781 -82.9728 260° West 181 208 6,100 -240 Descending Cleveland Center
06:51PM 42.4025 -83.0161 307° West 217 250 6,000 -120 Descending Cleveland Center
06:51PM 42.4219 -83.0142 North 217 250 6,000  Level Cleveland Center
06:52PM 42.4619 -83.0072 North 217 250 6,000  Level Cleveland Center
06:52PM 42.4808 -83.0036 North 215 247 6,000  Level Cleveland Center
06:53PM 42.5108 -83.0253 332° Northwest 174 200 6,000  Level Cleveland Center
06:53PM 42.5181 -83.0403 303° West 190 219 6,000  Level Cleveland Center
06:54PM 42.5314 -83.0847 292° West 155 178 6,000  Level Cleveland Center
06:55PM 42.5283 -83.0922 241° Southwest 173 199 6,000  Level Cleveland Center
06:55PM 42.4992 -83.1256 220° Southwest 166 191 6,000  Level Cleveland Center
06:56PM 42.4961 -83.1286 216° Southwest 158 182 6,000  Level Cleveland Center
06:56PM 42.4614 -83.1542 209° Southwest 160 184 6,000  Level Cleveland Center
06:57PM 42.4492 -83.1642 211° Southwest 161 185 6,000 -600 Level Cleveland Center
06:57PM 42.4211 -83.1856 209° Southwest 163 188 5,400 -900 Descending Cleveland Center
06:58PM 42.4097 -83.1931 206° Southwest 161 185 5,100 -900 Descending Cleveland Center
06:58PM 42.3792 -83.2164 209° Southwest 149 171 4,400 -900 Descending Cleveland Center
06:59PM 42.3719 -83.2211 206° Southwest 157 181 4,200 -840 Descending Cleveland Center
06:59PM 42.3411 -83.2450 210° Southwest 151 174 3,600 -780 Descending Cleveland Center
07:00PM 42.3353 -83.2492 208° Southwest 152 175 3,400 -900 Descending Cleveland Center
07:00PM 42.3103 -83.2661 207° Southwest 150 173 2,900 -900 Descending Cleveland Center
07:01PM 42.2983 -83.2758 211° Southwest 150 173 2,500 -840 Descending Cleveland Center
07:01PM 42.2769 -83.2925 210° Southwest 130 150 2,100 -720 Descending Cleveland Center
07:02PM 42.2658 -83.3008 209° Southwest 142 163 1,800 -720 Descending Cleveland Center
07:02PM 42.2481 -83.3139 209° Southwest 117 135 1,400 -720 Descending Cleveland Center
07:03PM 42.2375 -83.3217 209° Southwest 127 146 1,100 -540 Descending Cleveland Center
07:05PM 42.2124 -83.3534 236° Southwest  Level Estimated
07:12PM 42.2124 -83.3534 236° Southwest  Level Estimated
07:13PM 42.2124 -83.3534 236° Southwest  Level Estimated
07:14PM 42.2124 -83.3534 236° Southwest  Level Estimated
07:15PM 42.2124 -83.3534 236° Southwest  Level Estimated
07:16PM 42.2124 -83.3534 236° Southwest  Level Estimated
07:17PM 42.2124 -83.3534 236° Southwest  Level Estimated